Sierra Vista, AZ (85650)

11:51 AM MST on February 12, 2016 (GMT -0700)
Huachuca Mountain Village | | Change Station
CLOSE
Current Station
Personal Weather Station
Location: Sierra Vista, AZ
Elevation: 4721 ft
Nearby Weather Stations

Elev 4721 ft 31.49 °N, 110.27 °W | Updated 2 minutes ago

Clear
Clear
78.8 °F
Feels Like 77 °F
N
2.7
Wind Variable Wind from SSE

Today
High -- | Low -- °F
--% Chance of Precip.
Yesterday
High -- | Low -- °F
Precip. -- in
Pressure 30.32 in
Visibility 10.0 miles
Clouds Clear
Heat Index 77 °F
Dew Point 18 °F
Humidity 10%
Rainfall 0.00 in
Snow Depth Not available.
7:05 AM 6:05 PM
Waxing Crescent, 22% visible
METAR KFHU 121758Z 13012KT 10SM CLR 23/M13 A3032 RMK AO2A SLPNO 10218 20066 50003 $
Pressure 30.32 in
Visibility 10.0 miles
Clouds Clear
Heat Index 77 °F
Dew Point 18 °F
Humidity 10%
Rainfall 0.00 in
Snow Depth Not available.
7:05 AM 6:05 PM
Waxing Crescent, 22% visible
METAR KFHU 121758Z 13012KT 10SM CLR 23/M13 A3032 RMK AO2A SLPNO 10218 20066 50003 $

10-Day Weather Forecast

Almanac

Astronomy

Feb. 12, 2016 Rise Set
Actual Time
Civil Twilight
Nautical Twilight
Astronomical Twilight
Moon
Length of Visible Light
Length of Day
Tomorrow will be .
, % of the Moon is Illuminated

Today's Extremes

State Highs State Lows

Community

WunderPhotos

Upload Photos

1,892,369 photos uploaded!

WunderBlog® & News

Nearby

Air Quality

  Air Quality AQ Index Pollutant
Not available.

Snow Depth

Station Depth Elevation

Earthquake Activity

City Distance Mag. Time & Date
Minimum magnitude displayed is 2.5.

Coastal Water Temperatures

Place Temperature

Stations

Nearby Weather Stations

Station Location Temp. Windchill Dew Point Humidity Wind Precip. Elev Updated Type
                   

Watches & Warnings

There are currently no watches in effect.